sensor_id;sensor_type;location;lat;lon;timestamp;P1;durP1;ratioP1;P2;durP2;ratioP2
44732;SDS011;30460;50.836;4.390;2023-02-28T00:01:08;6.50;;;4.93;;
44732;SDS011;30460;50.836;4.390;2023-02-28T00:03:34;9.00;;;5.00;;
44732;SDS011;30460;50.836;4.390;2023-02-28T00:06:04;7.70;;;5.37;;
44732;SDS011;30460;50.836;4.390;2023-02-28T00:08:33;8.63;;;5.67;;
44732;SDS011;30460;50.836;4.390;2023-02-28T00:11:01;7.40;;;4.50;;
44732;SDS011;30460;50.836;4.390;2023-02-28T00:13:28;7.67;;;5.33;;
44732;SDS011;30460;50.836;4.390;2023-02-28T00:16:01;6.87;;;4.53;;
44732;SDS011;30460;50.836;4.390;2023-02-28T00:18:27;7.10;;;4.83;;
44732;SDS011;30460;50.836;4.390;2023-02-28T00:20:53;8.50;;;4.90;;
44732;SDS011;30460;50.836;4.390;2023-02-28T00:23:19;6.23;;;4.63;;
44732;SDS011;30460;50.836;4.390;2023-02-28T00:25:45;8.13;;;4.63;;
44732;SDS011;30460;50.836;4.390;2023-02-28T00:28:18;7.47;;;4.80;;
44732;SDS011;30460;50.836;4.390;2023-02-28T00:30:54;7.10;;;4.73;;
44732;SDS011;30460;50.836;4.390;2023-02-28T00:33:30;7.73;;;4.80;;
44732;SDS011;30460;50.836;4.390;2023-02-28T00:36:10;7.13;;;5.03;;
44732;SDS011;30460;50.836;4.390;2023-02-28T00:38:40;10.57;;;5.03;;
44732;SDS011;30460;50.836;4.390;2023-02-28T00:41:07;8.50;;;4.87;;
44732;SDS011;30460;50.836;4.390;2023-02-28T00:43:33;8.73;;;5.30;;
44732;SDS011;30460;50.836;4.390;2023-02-28T00:46:00;6.87;;;4.70;;
44732;SDS011;30460;50.836;4.390;2023-02-28T00:48:28;7.50;;;4.93;;
44732;SDS011;30460;50.836;4.390;2023-02-28T00:50:54;7.07;;;5.20;;
44732;SDS011;30460;50.836;4.390;2023-02-28T00:53:20;6.53;;;5.07;;
44732;SDS011;30460;50.836;4.390;2023-02-28T00:55:48;8.87;;;4.87;;
44732;SDS011;30460;50.836;4.390;2023-02-28T00:58:14;6.47;;;4.87;;
44732;SDS011;30460;50.836;4.390;2023-02-28T01:00:40;5.47;;;4.97;;
44732;SDS011;30460;50.836;4.390;2023-02-28T01:03:06;9.27;;;4.93;;
44732;SDS011;30460;50.836;4.390;2023-02-28T01:05:32;5.93;;;4.90;;
44732;SDS011;30460;50.836;4.390;2023-02-28T01:07:58;8.63;;;5.13;;
44732;SDS011;30460;50.836;4.390;2023-02-28T01:10:25;7.80;;;5.27;;
44732;SDS011;30460;50.836;4.390;2023-02-28T01:12:51;7.07;;;5.03;;
44732;SDS011;30460;50.836;4.390;2023-02-28T01:15:17;7.30;;;5.27;;
44732;SDS011;30460;50.836;4.390;2023-02-28T01:17:43;5.77;;;5.03;;
44732;SDS011;30460;50.836;4.390;2023-02-28T01:20:09;7.23;;;4.93;;
44732;SDS011;30460;50.836;4.390;2023-02-28T01:22:35;7.93;;;5.20;;
44732;SDS011;30460;50.836;4.390;2023-02-28T01:25:01;6.53;;;5.40;;
44732;SDS011;30460;50.836;4.390;2023-02-28T01:27:27;8.93;;;5.63;;
44732;SDS011;30460;50.836;4.390;2023-02-28T01:29:54;7.97;;;4.80;;
44732;SDS011;30460;50.836;4.390;2023-02-28T01:32:20;7.23;;;5.20;;
44732;SDS011;30460;50.836;4.390;2023-02-28T01:34:46;8.43;;;5.57;;
44732;SDS011;30460;50.836;4.390;2023-02-28T01:37:13;6.67;;;5.20;;
44732;SDS011;30460;50.836;4.390;2023-02-28T01:39:39;7.60;;;5.77;;
44732;SDS011;30460;50.836;4.390;2023-02-28T01:42:05;7.03;;;5.57;;
44732;SDS011;30460;50.836;4.390;2023-02-28T01:47:16;6.87;;;5.27;;
44732;SDS011;30460;50.836;4.390;2023-02-28T01:49:42;7.40;;;5.23;;
44732;SDS011;30460;50.836;4.390;2023-02-28T01:52:08;8.07;;;5.37;;
44732;SDS011;30460;50.836;4.390;2023-02-28T01:54:39;5.93;;;5.33;;
44732;SDS011;30460;50.836;4.390;2023-02-28T01:57:10;7.93;;;5.30;;
44732;SDS011;30460;50.836;4.390;2023-02-28T01:59:43;6.60;;;5.50;;
44732;SDS011;30460;50.836;4.390;2023-02-28T02:02:12;8.03;;;5.27;;
44732;SDS011;30460;50.836;4.390;2023-02-28T02:04:40;6.00;;;5.40;;
44732;SDS011;30460;50.836;4.390;2023-02-28T02:07:07;7.60;;;5.60;;
44732;SDS011;30460;50.836;4.390;2023-02-28T02:09:38;7.83;;;5.60;;
44732;SDS011;30460;50.836;4.390;2023-02-28T02:12:07;8.70;;;5.80;;
44732;SDS011;30460;50.836;4.390;2023-02-28T02:14:58;8.10;;;6.00;;
44732;SDS011;30460;50.836;4.390;2023-02-28T02:25:21;6.70;;;5.60;;
44732;SDS011;30460;50.836;4.390;2023-02-28T02:35:37;7.57;;;6.00;;
44732;SDS011;30460;50.836;4.390;2023-02-28T02:38:52;7.67;;;6.27;;
44732;SDS011;30460;50.836;4.390;2023-02-28T02:43:45;9.03;;;5.90;;
44732;SDS011;30460;50.836;4.390;2023-02-28T02:46:14;6.93;;;5.90;;
44732;SDS011;30460;50.836;4.390;2023-02-28T02:48:43;8.90;;;6.20;;
44732;SDS011;30460;50.836;4.390;2023-02-28T02:51:11;7.83;;;6.37;;
44732;SDS011;30460;50.836;4.390;2023-02-28T02:53:44;9.33;;;6.60;;
44732;SDS011;30460;50.836;4.390;2023-02-28T02:56:11;9.77;;;6.70;;
44732;SDS011;30460;50.836;4.390;2023-02-28T02:58:38;8.73;;;6.20;;
44732;SDS011;30460;50.836;4.390;2023-02-28T03:01:07;7.77;;;6.97;;
44732;SDS011;30460;50.836;4.390;2023-02-28T03:03:34;11.87;;;6.33;;
44732;SDS011;30460;50.836;4.390;2023-02-28T03:06:01;8.67;;;7.10;;
44732;SDS011;30460;50.836;4.390;2023-02-28T03:08:28;8.03;;;7.23;;
44732;SDS011;30460;50.836;4.390;2023-02-28T03:11:04;9.63;;;6.80;;
44732;SDS011;30460;50.836;4.390;2023-02-28T03:23:55;9.20;;;6.87;;
44732;SDS011;30460;50.836;4.390;2023-02-28T03:26:25;8.50;;;7.20;;
44732;SDS011;30460;50.836;4.390;2023-02-28T03:28:57;10.13;;;7.13;;
44732;SDS011;30460;50.836;4.390;2023-02-28T03:31:39;9.90;;;6.83;;
44732;SDS011;30460;50.836;4.390;2023-02-28T03:37:12;9.40;;;7.27;;
44732;SDS011;30460;50.836;4.390;2023-02-28T03:39:52;9.50;;;7.57;;
44732;SDS011;30460;50.836;4.390;2023-02-28T03:42:20;9.63;;;7.40;;
44732;SDS011;30460;50.836;4.390;2023-02-28T03:47:16;8.77;;;7.30;;
44732;SDS011;30460;50.836;4.390;2023-02-28T03:49:45;9.83;;;7.30;;
44732;SDS011;30460;50.836;4.390;2023-02-28T03:52:15;11.80;;;7.87;;
44732;SDS011;30460;50.836;4.390;2023-02-28T03:54:45;10.53;;;7.80;;
44732;SDS011;30460;50.836;4.390;2023-02-28T03:57:13;9.90;;;7.77;;
44732;SDS011;30460;50.836;4.390;2023-02-28T03:59:46;9.80;;;7.80;;
44732;SDS011;30460;50.836;4.390;2023-02-28T04:02:14;9.90;;;7.57;;
44732;SDS011;30460;50.836;4.390;2023-02-28T04:04:41;11.23;;;8.20;;
44732;SDS011;30460;50.836;4.390;2023-02-28T04:07:13;8.03;;;7.23;;
44732;SDS011;30460;50.836;4.390;2023-02-28T04:09:40;12.13;;;7.83;;
44732;SDS011;30460;50.836;4.390;2023-02-28T04:12:06;12.17;;;8.50;;
44732;SDS011;30460;50.836;4.390;2023-02-28T04:14:32;9.20;;;7.90;;
44732;SDS011;30460;50.836;4.390;2023-02-28T04:16:58;9.77;;;7.80;;
44732;SDS011;30460;50.836;4.390;2023-02-28T04:19:24;9.77;;;7.83;;
44732;SDS011;30460;50.836;4.390;2023-02-28T04:21:51;10.27;;;7.83;;
44732;SDS011;30460;50.836;4.390;2023-02-28T04:24:18;9.57;;;7.93;;
44732;SDS011;30460;50.836;4.390;2023-02-28T04:26:46;11.90;;;7.67;;
44732;SDS011;30460;50.836;4.390;2023-02-28T04:29:13;9.93;;;8.50;;
44732;SDS011;30460;50.836;4.390;2023-02-28T04:31:40;8.80;;;7.83;;
44732;SDS011;30460;50.836;4.390;2023-02-28T04:34:07;10.47;;;8.27;;
44732;SDS011;30460;50.836;4.390;2023-02-28T04:36:33;11.33;;;8.00;;
44732;SDS011;30460;50.836;4.390;2023-02-28T04:38:59;10.67;;;8.30;;
44732;SDS011;30460;50.836;4.390;2023-02-28T04:41:25;11.30;;;7.97;;
44732;SDS011;30460;50.836;4.390;2023-02-28T04:43:51;11.70;;;8.33;;
44732;SDS011;30460;50.836;4.390;2023-02-28T04:46:18;10.83;;;8.73;;
44732;SDS011;30460;50.836;4.390;2023-02-28T04:48:44;9.80;;;8.10;;
44732;SDS011;30460;50.836;4.390;2023-02-28T04:51:12;14.20;;;8.07;;
44732;SDS011;30460;50.836;4.390;2023-02-28T04:53:38;11.47;;;8.10;;
44732;SDS011;30460;50.836;4.390;2023-02-28T04:56:05;13.13;;;8.57;;
44732;SDS011;30460;50.836;4.390;2023-02-28T04:58:31;11.70;;;8.43;;
44732;SDS011;30460;50.836;4.390;2023-02-28T05:01:01;10.83;;;9.07;;
44732;SDS011;30460;50.836;4.390;2023-02-28T05:03:29;10.30;;;8.50;;
44732;SDS011;30460;50.836;4.390;2023-02-28T05:05:55;9.53;;;7.83;;
44732;SDS011;30460;50.836;4.390;2023-02-28T05:08:24;10.53;;;8.50;;
44732;SDS011;30460;50.836;4.390;2023-02-28T05:10:50;10.17;;;8.37;;
44732;SDS011;30460;50.836;4.390;2023-02-28T05:13:17;11.80;;;7.90;;
44732;SDS011;30460;50.836;4.390;2023-02-28T05:15:43;11.57;;;8.53;;
44732;SDS011;30460;50.836;4.390;2023-02-28T05:18:11;11.50;;;8.57;;
44732;SDS011;30460;50.836;4.390;2023-02-28T05:20:39;11.40;;;8.47;;
44732;SDS011;30460;50.836;4.390;2023-02-28T05:23:18;13.53;;;8.50;;
44732;SDS011;30460;50.836;4.390;2023-02-28T05:25:45;9.13;;;7.90;;
44732;SDS011;30460;50.836;4.390;2023-02-28T05:28:11;10.57;;;8.27;;
44732;SDS011;30460;50.836;4.390;2023-02-28T05:30:40;11.60;;;8.10;;
44732;SDS011;30460;50.836;4.390;2023-02-28T05:33:10;11.70;;;8.50;;
44732;SDS011;30460;50.836;4.390;2023-02-28T05:35:43;8.63;;;7.63;;
44732;SDS011;30460;50.836;4.390;2023-02-28T05:38:09;10.03;;;8.23;;
44732;SDS011;30460;50.836;4.390;2023-02-28T05:40:38;10.53;;;8.33;;
44732;SDS011;30460;50.836;4.390;2023-02-28T05:43:05;10.37;;;7.70;;
44732;SDS011;30460;50.836;4.390;2023-02-28T05:45:34;9.73;;;7.87;;
44732;SDS011;30460;50.836;4.390;2023-02-28T05:48:00;12.10;;;8.07;;
44732;SDS011;30460;50.836;4.390;2023-02-28T05:50:26;8.70;;;7.80;;
44732;SDS011;30460;50.836;4.390;2023-02-28T05:52:57;9.33;;;7.97;;
44732;SDS011;30460;50.836;4.390;2023-02-28T05:55:23;11.47;;;8.83;;
44732;SDS011;30460;50.836;4.390;2023-02-28T05:57:49;10.83;;;8.43;;
44732;SDS011;30460;50.836;4.390;2023-02-28T06:02:45;9.30;;;8.10;;
44732;SDS011;30460;50.836;4.390;2023-02-28T06:05:21;10.60;;;7.80;;
44732;SDS011;30460;50.836;4.390;2023-02-28T06:07:47;11.30;;;8.53;;
44732;SDS011;30460;50.836;4.390;2023-02-28T06:10:13;11.67;;;8.03;;
44732;SDS011;30460;50.836;4.390;2023-02-28T06:12:40;10.10;;;7.70;;
44732;SDS011;30460;50.836;4.390;2023-02-28T06:15:11;10.43;;;8.37;;
44732;SDS011;30460;50.836;4.390;2023-02-28T06:17:45;9.33;;;8.33;;
44732;SDS011;30460;50.836;4.390;2023-02-28T06:20:12;9.63;;;8.17;;
44732;SDS011;30460;50.836;4.390;2023-02-28T06:22:39;10.70;;;8.47;;
44732;SDS011;30460;50.836;4.390;2023-02-28T06:25:06;9.53;;;7.87;;
44732;SDS011;30460;50.836;4.390;2023-02-28T06:27:33;9.30;;;8.20;;
44732;SDS011;30460;50.836;4.390;2023-02-28T06:30:01;12.90;;;8.83;;
44732;SDS011;30460;50.836;4.390;2023-02-28T06:32:28;10.03;;;7.97;;
44732;SDS011;30460;50.836;4.390;2023-02-28T06:34:55;9.87;;;8.07;;
44732;SDS011;30460;50.836;4.390;2023-02-28T06:37:24;9.10;;;8.20;;
44732;SDS011;30460;50.836;4.390;2023-02-28T06:39:59;11.33;;;7.80;;
44732;SDS011;30460;50.836;4.390;2023-02-28T06:42:26;12.27;;;8.03;;
44732;SDS011;30460;50.836;4.390;2023-02-28T06:44:57;9.40;;;8.00;;
44732;SDS011;30460;50.836;4.390;2023-02-28T06:47:52;9.20;;;8.17;;
44732;SDS011;30460;50.836;4.390;2023-02-28T06:50:23;11.27;;;8.10;;
44732;SDS011;30460;50.836;4.390;2023-02-28T06:59:08;9.43;;;8.00;;
44732;SDS011;30460;50.836;4.390;2023-02-28T07:01:42;11.10;;;8.37;;
44732;SDS011;30460;50.836;4.390;2023-02-28T07:04:08;11.53;;;8.20;;
44732;SDS011;30460;50.836;4.390;2023-02-28T07:06:35;10.93;;;7.40;;
44732;SDS011;30460;50.836;4.390;2023-02-28T07:09:10;12.30;;;8.27;;
44732;SDS011;30460;50.836;4.390;2023-02-28T07:11:46;11.90;;;8.70;;
44732;SDS011;30460;50.836;4.390;2023-02-28T07:14:12;10.10;;;7.93;;
44732;SDS011;30460;50.836;4.390;2023-02-28T07:16:40;11.17;;;8.43;;
44732;SDS011;30460;50.836;4.390;2023-02-28T07:19:06;10.40;;;8.53;;
44732;SDS011;30460;50.836;4.390;2023-02-28T07:21:32;10.63;;;7.63;;
44732;SDS011;30460;50.836;4.390;2023-02-28T07:24:06;12.50;;;9.30;;
44732;SDS011;30460;50.836;4.390;2023-02-28T07:26:42;12.63;;;7.83;;
44732;SDS011;30460;50.836;4.390;2023-02-28T07:29:08;9.50;;;8.00;;
44732;SDS011;30460;50.836;4.390;2023-02-28T07:31:35;12.43;;;8.03;;
44732;SDS011;30460;50.836;4.390;2023-02-28T07:34:01;12.97;;;8.33;;
44732;SDS011;30460;50.836;4.390;2023-02-28T07:36:28;10.93;;;8.10;;
44732;SDS011;30460;50.836;4.390;2023-02-28T07:38:54;10.67;;;7.80;;
44732;SDS011;30460;50.836;4.390;2023-02-28T07:43:53;9.50;;;7.80;;
44732;SDS011;30460;50.836;4.390;2023-02-28T07:46:20;10.00;;;8.03;;
44732;SDS011;30460;50.836;4.390;2023-02-28T07:48:52;12.27;;;7.47;;
44732;SDS011;30460;50.836;4.390;2023-02-28T07:51:23;8.83;;;7.93;;
44732;SDS011;30460;50.836;4.390;2023-02-28T07:53:52;9.97;;;6.93;;
44732;SDS011;30460;50.836;4.390;2023-02-28T07:56:18;10.03;;;7.10;;
44732;SDS011;30460;50.836;4.390;2023-02-28T07:58:45;9.07;;;7.13;;
44732;SDS011;30460;50.836;4.390;2023-02-28T08:01:11;9.87;;;6.93;;
44732;SDS011;30460;50.836;4.390;2023-02-28T08:03:38;10.10;;;6.70;;
44732;SDS011;30460;50.836;4.390;2023-02-28T08:06:05;12.27;;;6.80;;
44732;SDS011;30460;50.836;4.390;2023-02-28T08:08:31;8.70;;;6.37;;
44732;SDS011;30460;50.836;4.390;2023-02-28T08:11:03;8.60;;;6.40;;
44732;SDS011;30460;50.836;4.390;2023-02-28T08:13:30;9.30;;;6.60;;
44732;SDS011;30460;50.836;4.390;2023-02-28T08:15:56;7.93;;;5.80;;
44732;SDS011;30460;50.836;4.390;2023-02-28T08:18:23;7.63;;;5.73;;
44732;SDS011;30460;50.836;4.390;2023-02-28T08:20:50;8.40;;;5.60;;
44732;SDS011;30460;50.836;4.390;2023-02-28T08:23:16;9.60;;;5.63;;
44732;SDS011;30460;50.836;4.390;2023-02-28T08:25:44;9.33;;;6.13;;
44732;SDS011;30460;50.836;4.390;2023-02-28T08:28:10;8.63;;;6.50;;
44732;SDS011;30460;50.836;4.390;2023-02-28T08:30:36;8.03;;;5.67;;
44732;SDS011;30460;50.836;4.390;2023-02-28T08:33:02;8.57;;;6.40;;
44732;SDS011;30460;50.836;4.390;2023-02-28T08:35:28;5.97;;;5.27;;
44732;SDS011;30460;50.836;4.390;2023-02-28T08:37:54;7.70;;;5.20;;
44732;SDS011;30460;50.836;4.390;2023-02-28T08:40:20;4.60;;;3.47;;
44732;SDS011;30460;50.836;4.390;2023-02-28T08:42:50;6.83;;;5.10;;
44732;SDS011;30460;50.836;4.390;2023-02-28T08:45:17;7.40;;;4.90;;
44732;SDS011;30460;50.836;4.390;2023-02-28T08:47:43;7.97;;;5.00;;
44732;SDS011;30460;50.836;4.390;2023-02-28T08:50:09;6.60;;;5.27;;
44732;SDS011;30460;50.836;4.390;2023-02-28T08:52:41;7.37;;;5.27;;
44732;SDS011;30460;50.836;4.390;2023-02-28T08:55:07;8.13;;;5.50;;
44732;SDS011;30460;50.836;4.390;2023-02-28T08:57:34;8.33;;;4.90;;
44732;SDS011;30460;50.836;4.390;2023-02-28T09:00:02;7.80;;;5.27;;
44732;SDS011;30460;50.836;4.390;2023-02-28T09:02:33;6.90;;;5.00;;
44732;SDS011;30460;50.836;4.390;2023-02-28T09:05:04;6.87;;;5.30;;
44732;SDS011;30460;50.836;4.390;2023-02-28T09:07:31;8.50;;;4.83;;
44732;SDS011;30460;50.836;4.390;2023-02-28T09:09:58;9.77;;;5.13;;
44732;SDS011;30460;50.836;4.390;2023-02-28T09:12:27;6.00;;;4.60;;
44732;SDS011;30460;50.836;4.390;2023-02-28T09:14:54;6.10;;;4.60;;
44732;SDS011;30460;50.836;4.390;2023-02-28T09:17:21;7.50;;;4.63;;
44732;SDS011;30460;50.836;4.390;2023-02-28T09:19:47;7.90;;;4.67;;
44732;SDS011;30460;50.836;4.390;2023-02-28T09:22:14;8.77;;;4.37;;
44732;SDS011;30460;50.836;4.390;2023-02-28T09:24:44;6.33;;;4.30;;
44732;SDS011;30460;50.836;4.390;2023-02-28T09:27:10;5.50;;;4.53;;
44732;SDS011;30460;50.836;4.390;2023-02-28T09:29:36;8.97;;;4.90;;
44732;SDS011;30460;50.836;4.390;2023-02-28T09:32:02;4.90;;;4.40;;
44732;SDS011;30460;50.836;4.390;2023-02-28T09:34:30;6.30;;;4.60;;
44732;SDS011;30460;50.836;4.390;2023-02-28T09:36:56;5.20;;;4.00;;
44732;SDS011;30460;50.836;4.390;2023-02-28T09:39:23;8.23;;;4.37;;
44732;SDS011;30460;50.836;4.390;2023-02-28T09:41:52;4.63;;;3.73;;
44732;SDS011;30460;50.836;4.390;2023-02-28T09:46:47;8.03;;;4.30;;
44732;SDS011;30460;50.836;4.390;2023-02-28T09:49:14;5.77;;;3.80;;
44732;SDS011;30460;50.836;4.390;2023-02-28T09:54:13;5.93;;;3.50;;
44732;SDS011;30460;50.836;4.390;2023-02-28T09:56:44;5.40;;;3.50;;
44732;SDS011;30460;50.836;4.390;2023-02-28T10:06:49;4.03;;;3.40;;
44732;SDS011;30460;50.836;4.390;2023-02-28T10:09:19;3.70;;;3.37;;
44732;SDS011;30460;50.836;4.390;2023-02-28T10:11:48;4.70;;;3.10;;
44732;SDS011;30460;50.836;4.390;2023-02-28T10:14:16;4.47;;;3.60;;
44732;SDS011;30460;50.836;4.390;2023-02-28T10:19:15;3.70;;;3.10;;
44732;SDS011;30460;50.836;4.390;2023-02-28T10:21:44;3.83;;;3.27;;
44732;SDS011;30460;50.836;4.390;2023-02-28T10:26:48;3.33;;;3.03;;
44732;SDS011;30460;50.836;4.390;2023-02-28T10:29:14;4.17;;;3.30;;
44732;SDS011;30460;50.836;4.390;2023-02-28T10:31:41;5.60;;;3.40;;
44732;SDS011;30460;50.836;4.390;2023-02-28T10:34:07;3.73;;;3.20;;
44732;SDS011;30460;50.836;4.390;2023-02-28T10:36:37;8.40;;;3.40;;
44732;SDS011;30460;50.836;4.390;2023-02-28T10:39:33;2.90;;;2.60;;
44732;SDS011;30460;50.836;4.390;2023-02-28T10:41:51;3.87;;;2.83;;
44732;SDS011;30460;50.836;4.390;2023-02-28T10:44:21;4.30;;;2.93;;
44732;SDS011;30460;50.836;4.390;2023-02-28T10:46:48;5.00;;;2.90;;
44732;SDS011;30460;50.836;4.390;2023-02-28T10:49:20;4.20;;;2.63;;
44732;SDS011;30460;50.836;4.390;2023-02-28T10:54:48;3.60;;;2.67;;
44732;SDS011;30460;50.836;4.390;2023-02-28T10:57:18;3.37;;;2.80;;
44732;SDS011;30460;50.836;4.390;2023-02-28T10:59:47;4.77;;;2.80;;
44732;SDS011;30460;50.836;4.390;2023-02-28T11:02:30;3.37;;;2.70;;
44732;SDS011;30460;50.836;4.390;2023-02-28T11:05:00;3.20;;;2.70;;
44732;SDS011;30460;50.836;4.390;2023-02-28T11:07:27;6.67;;;3.30;;
44732;SDS011;30460;50.836;4.390;2023-02-28T11:10:16;4.17;;;2.90;;
44732;SDS011;30460;50.836;4.390;2023-02-28T11:12:49;3.33;;;2.77;;
44732;SDS011;30460;50.836;4.390;2023-02-28T11:15:26;4.10;;;2.87;;
44732;SDS011;30460;50.836;4.390;2023-02-28T11:20:26;3.00;;;2.70;;
44732;SDS011;30460;50.836;4.390;2023-02-28T11:22:53;3.47;;;2.90;;
44732;SDS011;30460;50.836;4.390;2023-02-28T11:25:21;4.43;;;2.83;;
44732;SDS011;30460;50.836;4.390;2023-02-28T11:27:49;3.47;;;2.80;;
44732;SDS011;30460;50.836;4.390;2023-02-28T11:35:49;3.60;;;2.90;;
44732;SDS011;30460;50.836;4.390;2023-02-28T11:38:28;4.03;;;3.30;;
44732;SDS011;30460;50.836;4.390;2023-02-28T11:46:54;3.17;;;2.60;;
44732;SDS011;30460;50.836;4.390;2023-02-28T11:54:48;4.50;;;3.07;;
44732;SDS011;30460;50.836;4.390;2023-02-28T11:57:32;5.30;;;3.13;;
44732;SDS011;30460;50.836;4.390;2023-02-28T12:05:36;5.10;;;3.30;;
44732;SDS011;30460;50.836;4.390;2023-02-28T12:11:10;4.33;;;3.30;;
44732;SDS011;30460;50.836;4.390;2023-02-28T12:13:43;6.00;;;3.20;;
44732;SDS011;30460;50.836;4.390;2023-02-28T12:18:53;4.43;;;3.03;;
44732;SDS011;30460;50.836;4.390;2023-02-28T12:21:27;3.73;;;2.93;;
44732;SDS011;30460;50.836;4.390;2023-02-28T12:24:00;6.93;;;3.20;;
44732;SDS011;30460;50.836;4.390;2023-02-28T12:32:11;4.27;;;3.30;;
44732;SDS011;30460;50.836;4.390;2023-02-28T12:34:36;3.17;;;2.87;;
44732;SDS011;30460;50.836;4.390;2023-02-28T12:37:14;3.13;;;2.83;;
44732;SDS011;30460;50.836;4.390;2023-02-28T12:39:50;3.10;;;2.80;;
44732;SDS011;30460;50.836;4.390;2023-02-28T12:42:30;3.00;;;2.70;;
44732;SDS011;30460;50.836;4.390;2023-02-28T12:45:02;3.10;;;2.70;;
44732;SDS011;30460;50.836;4.390;2023-02-28T12:47:32;2.70;;;2.50;;
44732;SDS011;30460;50.836;4.390;2023-02-28T12:49:59;4.67;;;2.87;;
44732;SDS011;30460;50.836;4.390;2023-02-28T12:52:34;3.77;;;3.47;;
44732;SDS011;30460;50.836;4.390;2023-02-28T13:00:53;3.63;;;3.00;;
44732;SDS011;30460;50.836;4.390;2023-02-28T13:06:24;3.27;;;2.97;;
44732;SDS011;30460;50.836;4.390;2023-02-28T13:13:57;4.90;;;3.20;;
44732;SDS011;30460;50.836;4.390;2023-02-28T13:16:24;4.17;;;2.90;;
44732;SDS011;30460;50.836;4.390;2023-02-28T13:18:51;5.23;;;3.07;;
44732;SDS011;30460;50.836;4.390;2023-02-28T13:21:23;3.77;;;3.07;;
44732;SDS011;30460;50.836;4.390;2023-02-28T13:28:59;4.47;;;3.00;;
44732;SDS011;30460;50.836;4.390;2023-02-28T13:31:25;3.70;;;3.30;;
44732;SDS011;30460;50.836;4.390;2023-02-28T13:36:29;3.37;;;3.07;;
44732;SDS011;30460;50.836;4.390;2023-02-28T13:39:00;3.33;;;2.77;;
44732;SDS011;30460;50.836;4.390;2023-02-28T13:44:03;5.23;;;2.90;;
44732;SDS011;30460;50.836;4.390;2023-02-28T13:46:30;4.27;;;2.80;;
44732;SDS011;30460;50.836;4.390;2023-02-28T13:48:56;3.37;;;3.07;;
44732;SDS011;30460;50.836;4.390;2023-02-28T13:51:43;3.70;;;3.23;;
44732;SDS011;30460;50.836;4.390;2023-02-28T13:59:29;4.63;;;3.27;;
44732;SDS011;30460;50.836;4.390;2023-02-28T14:06:56;4.30;;;3.10;;
44732;SDS011;30460;50.836;4.390;2023-02-28T14:09:24;3.60;;;3.27;;
44732;SDS011;30460;50.836;4.390;2023-02-28T14:11:51;3.93;;;3.00;;
44732;SDS011;30460;50.836;4.390;2023-02-28T14:14:53;3.63;;;2.80;;
44732;SDS011;30460;50.836;4.390;2023-02-28T14:17:16;5.20;;;3.47;;
44732;SDS011;30460;50.836;4.390;2023-02-28T14:19:46;4.10;;;3.20;;
44732;SDS011;30460;50.836;4.390;2023-02-28T14:27:47;5.20;;;2.90;;
44732;SDS011;30460;50.836;4.390;2023-02-28T14:33:16;3.93;;;3.10;;
44732;SDS011;30460;50.836;4.390;2023-02-28T14:38:24;3.93;;;3.63;;
44732;SDS011;30460;50.836;4.390;2023-02-28T14:40:51;4.30;;;3.63;;
44732;SDS011;30460;50.836;4.390;2023-02-28T14:43:23;5.27;;;3.30;;
44732;SDS011;30460;50.836;4.390;2023-02-28T14:45:50;4.27;;;2.97;;
44732;SDS011;30460;50.836;4.390;2023-02-28T14:48:20;4.57;;;3.10;;
44732;SDS011;30460;50.836;4.390;2023-02-28T14:50:49;4.40;;;3.47;;
44732;SDS011;30460;50.836;4.390;2023-02-28T14:53:18;5.43;;;3.47;;
44732;SDS011;30460;50.836;4.390;2023-02-28T14:55:46;5.33;;;3.60;;
44732;SDS011;30460;50.836;4.390;2023-02-28T14:58:24;5.13;;;3.50;;
44732;SDS011;30460;50.836;4.390;2023-02-28T15:00:51;6.07;;;3.47;;
44732;SDS011;30460;50.836;4.390;2023-02-28T15:05:55;4.20;;;3.80;;
44732;SDS011;30460;50.836;4.390;2023-02-28T15:08:22;4.90;;;3.70;;
44732;SDS011;30460;50.836;4.390;2023-02-28T15:13:33;4.43;;;3.30;;
44732;SDS011;30460;50.836;4.390;2023-02-28T17:00:06;8.63;;;6.43;;
44732;SDS011;30460;50.836;4.390;2023-02-28T17:02:33;22.80;;;19.30;;
44732;SDS011;30460;50.836;4.390;2023-02-28T17:05:11;10.27;;;9.27;;
44732;SDS011;30460;50.836;4.390;2023-02-28T17:07:41;16.83;;;15.33;;
44732;SDS011;30460;50.836;4.390;2023-02-28T17:10:18;6.20;;;5.53;;
44732;SDS011;30460;50.836;4.390;2023-02-28T17:12:44;7.70;;;5.53;;
44732;SDS011;30460;50.836;4.390;2023-02-28T17:15:12;8.20;;;7.30;;
44732;SDS011;30460;50.836;4.390;2023-02-28T17:17:38;9.97;;;7.83;;
44732;SDS011;30460;50.836;4.390;2023-02-28T17:20:05;11.97;;;10.70;;
44732;SDS011;30460;50.836;4.390;2023-02-28T17:22:32;6.47;;;4.73;;
44732;SDS011;30460;50.836;4.390;2023-02-28T17:25:00;6.90;;;5.97;;
44732;SDS011;30460;50.836;4.390;2023-02-28T17:27:26;8.27;;;7.07;;
44732;SDS011;30460;50.836;4.390;2023-02-28T17:29:52;10.30;;;9.30;;
44732;SDS011;30460;50.836;4.390;2023-02-28T17:32:18;13.37;;;11.87;;
44732;SDS011;30460;50.836;4.390;2023-02-28T17:34:44;6.93;;;5.10;;
44732;SDS011;30460;50.836;4.390;2023-02-28T17:37:10;8.33;;;4.57;;
44732;SDS011;30460;50.836;4.390;2023-02-28T17:39:38;5.43;;;4.93;;
44732;SDS011;30460;50.836;4.390;2023-02-28T17:42:04;9.40;;;7.57;;
44732;SDS011;30460;50.836;4.390;2023-02-28T17:44:30;5.27;;;4.10;;
44732;SDS011;30460;50.836;4.390;2023-02-28T17:47:02;5.77;;;4.80;;
44732;SDS011;30460;50.836;4.390;2023-02-28T17:49:30;9.03;;;6.27;;
44732;SDS011;30460;50.836;4.390;2023-02-28T17:51:57;10.27;;;9.27;;
44732;SDS011;30460;50.836;4.390;2023-02-28T17:54:23;19.43;;;17.60;;
44732;SDS011;30460;50.836;4.390;2023-02-28T17:56:50;8.87;;;7.97;;
44732;SDS011;30460;50.836;4.390;2023-02-28T17:59:16;6.80;;;5.57;;
44732;SDS011;30460;50.836;4.390;2023-02-28T18:01:43;12.33;;;7.43;;
44732;SDS011;30460;50.836;4.390;2023-02-28T18:04:11;8.50;;;6.70;;
44732;SDS011;30460;50.836;4.390;2023-02-28T18:06:38;6.57;;;5.40;;
44732;SDS011;30460;50.836;4.390;2023-02-28T18:09:21;7.50;;;5.83;;
44732;SDS011;30460;50.836;4.390;2023-02-28T18:11:47;11.67;;;7.27;;
44732;SDS011;30460;50.836;4.390;2023-02-28T18:14:19;13.33;;;11.70;;
44732;SDS011;30460;50.836;4.390;2023-02-28T18:16:49;19.03;;;13.47;;
44732;SDS011;30460;50.836;4.390;2023-02-28T18:19:15;9.23;;;6.80;;
44732;SDS011;30460;50.836;4.390;2023-02-28T18:21:45;9.57;;;7.27;;
44732;SDS011;30460;50.836;4.390;2023-02-28T18:24:12;17.23;;;7.43;;
44732;SDS011;30460;50.836;4.390;2023-02-28T18:26:43;6.03;;;5.03;;
44732;SDS011;30460;50.836;4.390;2023-02-28T18:29:12;8.77;;;4.97;;
44732;SDS011;30460;50.836;4.390;2023-02-28T18:31:41;8.40;;;6.10;;
44732;SDS011;30460;50.836;4.390;2023-02-28T18:34:16;12.90;;;10.07;;
44732;SDS011;30460;50.836;4.390;2023-02-28T18:36:45;6.60;;;5.10;;
44732;SDS011;30460;50.836;4.390;2023-02-28T18:39:13;19.63;;;17.63;;
44732;SDS011;30460;50.836;4.390;2023-02-28T18:44:24;12.30;;;9.50;;
44732;SDS011;30460;50.836;4.390;2023-02-28T18:52:16;6.53;;;5.00;;
44732;SDS011;30460;50.836;4.390;2023-02-28T18:58:02;8.80;;;6.03;;
44732;SDS011;30460;50.836;4.390;2023-02-28T19:00:56;7.07;;;5.80;;
44732;SDS011;30460;50.836;4.390;2023-02-28T19:03:37;8.27;;;5.73;;
44732;SDS011;30460;50.836;4.390;2023-02-28T19:06:18;9.00;;;5.83;;
44732;SDS011;30460;50.836;4.390;2023-02-28T19:09:07;10.43;;;5.50;;
44732;SDS011;30460;50.836;4.390;2023-02-28T19:11:37;8.70;;;5.27;;
44732;SDS011;30460;50.836;4.390;2023-02-28T19:17:19;7.00;;;5.40;;
44732;SDS011;30460;50.836;4.390;2023-02-28T19:19:55;6.87;;;5.67;;
44732;SDS011;30460;50.836;4.390;2023-02-28T19:22:24;9.37;;;5.50;;
44732;SDS011;30460;50.836;4.390;2023-02-28T19:25:16;10.77;;;8.73;;
44732;SDS011;30460;50.836;4.390;2023-02-28T19:30:34;9.17;;;6.23;;
44732;SDS011;30460;50.836;4.390;2023-02-28T20:11:20;13.33;;;10.10;;